sensor_id;sensor_type;location;lat;lon;timestamp;P1;durP1;ratioP1;P2;durP2;ratioP2
32214;SDS011;18708;53.124;23.190;2023-05-06T00:00:00;4.45;;;2.45;;
32214;SDS011;18708;53.124;23.190;2023-05-06T00:02:26;4.70;;;2.78;;
32214;SDS011;18708;53.124;23.190;2023-05-06T00:04:53;5.75;;;2.50;;
32214;SDS011;18708;53.124;23.190;2023-05-06T00:07:19;5.57;;;3.08;;
32214;SDS011;18708;53.124;23.190;2023-05-06T00:09:45;6.90;;;3.42;;
32214;SDS011;18708;53.124;23.190;2023-05-06T00:12:11;7.22;;;2.58;;
32214;SDS011;18708;53.124;23.190;2023-05-06T00:14:37;6.10;;;2.92;;
32214;SDS011;18708;53.124;23.190;2023-05-06T00:17:03;8.15;;;3.35;;
32214;SDS011;18708;53.124;23.190;2023-05-06T00:19:29;6.93;;;3.58;;
32214;SDS011;18708;53.124;23.190;2023-05-06T00:21:55;4.95;;;3.42;;
32214;SDS011;18708;53.124;23.190;2023-05-06T00:24:23;6.82;;;3.45;;
32214;SDS011;18708;53.124;23.190;2023-05-06T00:26:49;5.65;;;3.00;;
32214;SDS011;18708;53.124;23.190;2023-05-06T00:29:17;4.95;;;3.30;;
32214;SDS011;18708;53.124;23.190;2023-05-06T00:31:43;5.38;;;3.08;;
32214;SDS011;18708;53.124;23.190;2023-05-06T00:34:09;5.53;;;2.88;;
32214;SDS011;18708;53.124;23.190;2023-05-06T00:36:35;8.35;;;3.65;;
32214;SDS011;18708;53.124;23.190;2023-05-06T00:39:02;5.28;;;2.80;;
32214;SDS011;18708;53.124;23.190;2023-05-06T00:41:33;3.90;;;2.75;;
32214;SDS011;18708;53.124;23.190;2023-05-06T00:43:59;7.05;;;2.97;;
32214;SDS011;18708;53.124;23.190;2023-05-06T00:46:25;4.30;;;2.90;;
32214;SDS011;18708;53.124;23.190;2023-05-06T00:48:51;9.18;;;2.88;;
32214;SDS011;18708;53.124;23.190;2023-05-06T00:51:17;4.93;;;2.63;;
32214;SDS011;18708;53.124;23.190;2023-05-06T00:53:43;10.27;;;3.40;;
32214;SDS011;18708;53.124;23.190;2023-05-06T00:56:12;4.53;;;3.15;;
32214;SDS011;18708;53.124;23.190;2023-05-06T00:58:38;5.55;;;3.28;;
32214;SDS011;18708;53.124;23.190;2023-05-06T01:01:04;6.65;;;3.10;;
32214;SDS011;18708;53.124;23.190;2023-05-06T01:03:29;5.13;;;3.22;;
32214;SDS011;18708;53.124;23.190;2023-05-06T01:08:59;3.65;;;2.70;;
32214;SDS011;18708;53.124;23.190;2023-05-06T01:11:51;4.82;;;2.88;;
32214;SDS011;18708;53.124;23.190;2023-05-06T01:14:40;3.38;;;2.35;;
32214;SDS011;18708;53.124;23.190;2023-05-06T01:17:13;6.50;;;3.08;;
32214;SDS011;18708;53.124;23.190;2023-05-06T01:19:43;3.08;;;2.42;;
32214;SDS011;18708;53.124;23.190;2023-05-06T01:22:12;5.03;;;3.17;;
32214;SDS011;18708;53.124;23.190;2023-05-06T01:24:43;5.40;;;2.67;;
32214;SDS011;18708;53.124;23.190;2023-05-06T01:27:10;3.15;;;2.85;;
32214;SDS011;18708;53.124;23.190;2023-05-06T01:29:38;3.85;;;2.88;;
32214;SDS011;18708;53.124;23.190;2023-05-06T01:32:10;5.78;;;3.00;;
32214;SDS011;18708;53.124;23.190;2023-05-06T01:40:01;3.58;;;2.67;;
32214;SDS011;18708;53.124;23.190;2023-05-06T01:42:29;3.53;;;2.30;;
32214;SDS011;18708;53.124;23.190;2023-05-06T01:44:58;4.32;;;2.55;;
32214;SDS011;18708;53.124;23.190;2023-05-06T01:47:26;4.53;;;2.72;;
32214;SDS011;18708;53.124;23.190;2023-05-06T01:49:52;4.20;;;2.30;;
32214;SDS011;18708;53.124;23.190;2023-05-06T01:52:19;3.95;;;2.08;;
32214;SDS011;18708;53.124;23.190;2023-05-06T01:54:46;3.38;;;2.72;;
32214;SDS011;18708;53.124;23.190;2023-05-06T01:57:11;5.90;;;2.95;;
32214;SDS011;18708;53.124;23.190;2023-05-06T01:59:37;5.53;;;2.70;;
32214;SDS011;18708;53.124;23.190;2023-05-06T02:02:05;4.20;;;2.85;;
32214;SDS011;18708;53.124;23.190;2023-05-06T02:04:32;5.60;;;3.03;;
32214;SDS011;18708;53.124;23.190;2023-05-06T02:06:57;4.50;;;2.33;;
32214;SDS011;18708;53.124;23.190;2023-05-06T02:09:23;4.10;;;2.10;;
32214;SDS011;18708;53.124;23.190;2023-05-06T02:11:49;4.65;;;1.88;;
32214;SDS011;18708;53.124;23.190;2023-05-06T02:14:14;2.90;;;2.25;;
32214;SDS011;18708;53.124;23.190;2023-05-06T02:16:40;5.40;;;3.00;;
32214;SDS011;18708;53.124;23.190;2023-05-06T02:19:05;3.38;;;2.05;;
32214;SDS011;18708;53.124;23.190;2023-05-06T02:21:31;3.33;;;2.25;;
32214;SDS011;18708;53.124;23.190;2023-05-06T02:23:57;2.55;;;1.77;;
32214;SDS011;18708;53.124;23.190;2023-05-06T02:26:23;2.85;;;2.30;;
32214;SDS011;18708;53.124;23.190;2023-05-06T02:28:48;4.55;;;2.25;;
32214;SDS011;18708;53.124;23.190;2023-05-06T02:31:14;2.83;;;2.13;;
32214;SDS011;18708;53.124;23.190;2023-05-06T02:33:40;3.60;;;2.33;;
32214;SDS011;18708;53.124;23.190;2023-05-06T02:36:06;2.92;;;2.00;;
32214;SDS011;18708;53.124;23.190;2023-05-06T02:38:31;4.20;;;2.58;;
32214;SDS011;18708;53.124;23.190;2023-05-06T02:40:57;4.28;;;2.20;;
32214;SDS011;18708;53.124;23.190;2023-05-06T02:43:23;3.17;;;2.65;;
32214;SDS011;18708;53.124;23.190;2023-05-06T02:45:48;3.80;;;2.20;;
32214;SDS011;18708;53.124;23.190;2023-05-06T02:48:14;5.25;;;2.58;;
32214;SDS011;18708;53.124;23.190;2023-05-06T02:50:40;2.90;;;2.25;;
32214;SDS011;18708;53.124;23.190;2023-05-06T02:53:06;4.75;;;2.67;;
32214;SDS011;18708;53.124;23.190;2023-05-06T02:55:33;2.35;;;1.95;;
32214;SDS011;18708;53.124;23.190;2023-05-06T02:57:58;4.22;;;2.38;;
32214;SDS011;18708;53.124;23.190;2023-05-06T03:00:24;4.05;;;2.40;;
32214;SDS011;18708;53.124;23.190;2023-05-06T03:02:50;4.63;;;2.78;;
32214;SDS011;18708;53.124;23.190;2023-05-06T03:05:16;4.68;;;2.33;;
32214;SDS011;18708;53.124;23.190;2023-05-06T03:07:41;4.95;;;2.70;;
32214;SDS011;18708;53.124;23.190;2023-05-06T03:10:07;3.95;;;2.67;;
32214;SDS011;18708;53.124;23.190;2023-05-06T03:12:33;8.25;;;3.58;;
32214;SDS011;18708;53.124;23.190;2023-05-06T03:14:59;3.92;;;2.67;;
32214;SDS011;18708;53.124;23.190;2023-05-06T03:17:24;7.75;;;3.15;;
32214;SDS011;18708;53.124;23.190;2023-05-06T03:19:50;7.38;;;3.80;;
32214;SDS011;18708;53.124;23.190;2023-05-06T03:22:16;8.88;;;3.75;;
32214;SDS011;18708;53.124;23.190;2023-05-06T03:24:41;9.32;;;4.78;;
32214;SDS011;18708;53.124;23.190;2023-05-06T03:27:07;5.45;;;3.40;;
32214;SDS011;18708;53.124;23.190;2023-05-06T03:29:35;7.75;;;3.90;;
32214;SDS011;18708;53.124;23.190;2023-05-06T03:32:04;8.65;;;3.65;;
32214;SDS011;18708;53.124;23.190;2023-05-06T03:34:30;9.23;;;4.28;;
32214;SDS011;18708;53.124;23.190;2023-05-06T03:36:56;8.63;;;3.97;;
32214;SDS011;18708;53.124;23.190;2023-05-06T03:39:22;8.90;;;3.90;;
32214;SDS011;18708;53.124;23.190;2023-05-06T03:41:48;6.90;;;3.78;;
32214;SDS011;18708;53.124;23.190;2023-05-06T03:44:14;8.38;;;4.25;;
32214;SDS011;18708;53.124;23.190;2023-05-06T03:46:39;9.18;;;4.47;;
32214;SDS011;18708;53.124;23.190;2023-05-06T03:49:05;8.40;;;3.70;;
32214;SDS011;18708;53.124;23.190;2023-05-06T03:51:31;4.63;;;3.28;;
32214;SDS011;18708;53.124;23.190;2023-05-06T03:53:57;6.30;;;3.58;;
32214;SDS011;18708;53.124;23.190;2023-05-06T03:56:23;8.07;;;3.90;;
32214;SDS011;18708;53.124;23.190;2023-05-06T03:58:49;6.53;;;3.92;;
32214;SDS011;18708;53.124;23.190;2023-05-06T04:01:15;6.72;;;3.83;;
32214;SDS011;18708;53.124;23.190;2023-05-06T04:03:42;8.82;;;3.80;;
32214;SDS011;18708;53.124;23.190;2023-05-06T04:06:08;7.15;;;3.28;;
32214;SDS011;18708;53.124;23.190;2023-05-06T04:08:34;6.88;;;3.58;;
32214;SDS011;18708;53.124;23.190;2023-05-06T04:11:06;7.53;;;3.95;;
32214;SDS011;18708;53.124;23.190;2023-05-06T04:13:32;10.90;;;3.78;;
32214;SDS011;18708;53.124;23.190;2023-05-06T04:15:59;7.38;;;3.70;;
32214;SDS011;18708;53.124;23.190;2023-05-06T04:18:25;9.82;;;4.28;;
32214;SDS011;18708;53.124;23.190;2023-05-06T04:20:51;11.90;;;3.97;;
32214;SDS011;18708;53.124;23.190;2023-05-06T04:23:17;7.57;;;3.55;;
32214;SDS011;18708;53.124;23.190;2023-05-06T04:25:44;7.93;;;4.05;;
32214;SDS011;18708;53.124;23.190;2023-05-06T04:28:12;9.20;;;4.65;;
32214;SDS011;18708;53.124;23.190;2023-05-06T04:30:40;11.23;;;4.32;;
32214;SDS011;18708;53.124;23.190;2023-05-06T04:33:10;11.40;;;4.88;;
32214;SDS011;18708;53.124;23.190;2023-05-06T04:35:36;8.75;;;4.63;;
32214;SDS011;18708;53.124;23.190;2023-05-06T04:38:02;7.47;;;4.47;;
32214;SDS011;18708;53.124;23.190;2023-05-06T04:40:28;6.50;;;3.42;;
32214;SDS011;18708;53.124;23.190;2023-05-06T04:42:54;6.43;;;4.03;;
32214;SDS011;18708;53.124;23.190;2023-05-06T04:45:19;7.63;;;4.13;;
32214;SDS011;18708;53.124;23.190;2023-05-06T04:47:46;9.25;;;4.85;;
32214;SDS011;18708;53.124;23.190;2023-05-06T04:50:12;6.97;;;3.78;;
32214;SDS011;18708;53.124;23.190;2023-05-06T04:52:38;9.75;;;3.92;;
32214;SDS011;18708;53.124;23.190;2023-05-06T04:55:04;8.35;;;4.25;;
32214;SDS011;18708;53.124;23.190;2023-05-06T04:57:30;8.13;;;3.95;;
32214;SDS011;18708;53.124;23.190;2023-05-06T04:59:56;6.43;;;3.72;;
32214;SDS011;18708;53.124;23.190;2023-05-06T05:02:22;6.70;;;3.55;;
32214;SDS011;18708;53.124;23.190;2023-05-06T05:04:48;7.63;;;3.75;;
32214;SDS011;18708;53.124;23.190;2023-05-06T05:07:13;7.93;;;4.07;;
32214;SDS011;18708;53.124;23.190;2023-05-06T05:09:39;9.80;;;3.67;;
32214;SDS011;18708;53.124;23.190;2023-05-06T05:12:05;6.38;;;3.80;;
32214;SDS011;18708;53.124;23.190;2023-05-06T05:14:31;7.68;;;3.53;;
32214;SDS011;18708;53.124;23.190;2023-05-06T05:16:56;4.43;;;3.28;;
32214;SDS011;18708;53.124;23.190;2023-05-06T05:19:22;5.03;;;3.15;;
32214;SDS011;18708;53.124;23.190;2023-05-06T05:21:48;7.07;;;3.80;;
32214;SDS011;18708;53.124;23.190;2023-05-06T05:24:14;5.00;;;3.17;;
32214;SDS011;18708;53.124;23.190;2023-05-06T05:26:40;8.10;;;3.35;;
32214;SDS011;18708;53.124;23.190;2023-05-06T05:29:06;9.18;;;3.40;;
32214;SDS011;18708;53.124;23.190;2023-05-06T05:31:32;5.72;;;3.22;;
32214;SDS011;18708;53.124;23.190;2023-05-06T05:33:57;4.60;;;3.17;;
32214;SDS011;18708;53.124;23.190;2023-05-06T05:36:23;4.47;;;2.95;;
32214;SDS011;18708;53.124;23.190;2023-05-06T05:38:50;5.65;;;3.00;;
32214;SDS011;18708;53.124;23.190;2023-05-06T05:41:16;7.35;;;3.45;;
32214;SDS011;18708;53.124;23.190;2023-05-06T05:43:41;6.18;;;3.28;;
32214;SDS011;18708;53.124;23.190;2023-05-06T05:46:07;4.07;;;2.92;;
32214;SDS011;18708;53.124;23.190;2023-05-06T05:48:33;7.15;;;3.08;;
32214;SDS011;18708;53.124;23.190;2023-05-06T05:51:01;4.65;;;3.00;;
32214;SDS011;18708;53.124;23.190;2023-05-06T05:53:27;3.53;;;3.03;;
32214;SDS011;18708;53.124;23.190;2023-05-06T05:55:53;7.13;;;3.10;;
32214;SDS011;18708;53.124;23.190;2023-05-06T05:58:18;4.65;;;2.70;;
32214;SDS011;18708;53.124;23.190;2023-05-06T06:00:44;5.07;;;2.60;;
32214;SDS011;18708;53.124;23.190;2023-05-06T06:03:10;4.53;;;3.60;;
32214;SDS011;18708;53.124;23.190;2023-05-06T06:05:36;4.70;;;2.70;;
32214;SDS011;18708;53.124;23.190;2023-05-06T06:08:02;4.80;;;2.88;;
32214;SDS011;18708;53.124;23.190;2023-05-06T06:10:28;5.18;;;2.53;;
32214;SDS011;18708;53.124;23.190;2023-05-06T06:12:53;4.00;;;2.53;;
32214;SDS011;18708;53.124;23.190;2023-05-06T06:15:20;3.25;;;2.70;;
32214;SDS011;18708;53.124;23.190;2023-05-06T06:17:46;3.78;;;2.53;;
32214;SDS011;18708;53.124;23.190;2023-05-06T06:20:11;4.65;;;2.38;;
32214;SDS011;18708;53.124;23.190;2023-05-06T06:22:37;3.58;;;2.90;;
32214;SDS011;18708;53.124;23.190;2023-05-06T06:25:03;3.67;;;2.58;;
32214;SDS011;18708;53.124;23.190;2023-05-06T06:27:29;3.67;;;2.63;;
32214;SDS011;18708;53.124;23.190;2023-05-06T06:29:58;4.18;;;2.70;;
32214;SDS011;18708;53.124;23.190;2023-05-06T06:32:23;4.85;;;2.63;;
32214;SDS011;18708;53.124;23.190;2023-05-06T06:34:49;3.63;;;2.72;;
32214;SDS011;18708;53.124;23.190;2023-05-06T06:37:15;5.20;;;2.72;;
32214;SDS011;18708;53.124;23.190;2023-05-06T06:39:40;8.00;;;2.78;;
32214;SDS011;18708;53.124;23.190;2023-05-06T06:42:06;3.83;;;2.70;;
32214;SDS011;18708;53.124;23.190;2023-05-06T06:44:32;3.58;;;2.72;;
32214;SDS011;18708;53.124;23.190;2023-05-06T06:46:59;6.63;;;2.92;;
32214;SDS011;18708;53.124;23.190;2023-05-06T06:49:26;3.72;;;2.72;;
32214;SDS011;18708;53.124;23.190;2023-05-06T06:51:52;4.63;;;2.72;;
32214;SDS011;18708;53.124;23.190;2023-05-06T06:54:17;5.47;;;2.83;;
32214;SDS011;18708;53.124;23.190;2023-05-06T06:56:43;4.22;;;2.63;;
32214;SDS011;18708;53.124;23.190;2023-05-06T06:59:15;4.35;;;2.72;;
32214;SDS011;18708;53.124;23.190;2023-05-06T07:01:41;5.78;;;3.00;;
32214;SDS011;18708;53.124;23.190;2023-05-06T07:04:06;4.47;;;2.78;;
32214;SDS011;18708;53.124;23.190;2023-05-06T07:06:32;5.40;;;3.03;;
32214;SDS011;18708;53.124;23.190;2023-05-06T07:08:58;6.35;;;2.95;;
32214;SDS011;18708;53.124;23.190;2023-05-06T07:11:23;3.97;;;2.50;;
32214;SDS011;18708;53.124;23.190;2023-05-06T07:13:49;4.38;;;2.55;;
32214;SDS011;18708;53.124;23.190;2023-05-06T07:16:15;3.53;;;2.20;;
32214;SDS011;18708;53.124;23.190;2023-05-06T07:18:40;5.00;;;2.63;;
32214;SDS011;18708;53.124;23.190;2023-05-06T07:21:06;5.07;;;2.40;;
32214;SDS011;18708;53.124;23.190;2023-05-06T07:23:32;4.15;;;2.40;;
32214;SDS011;18708;53.124;23.190;2023-05-06T07:25:58;3.85;;;2.38;;
32214;SDS011;18708;53.124;23.190;2023-05-06T07:28:24;3.42;;;2.65;;
32214;SDS011;18708;53.124;23.190;2023-05-06T07:30:50;4.57;;;2.50;;
32214;SDS011;18708;53.124;23.190;2023-05-06T07:33:16;2.70;;;2.30;;
32214;SDS011;18708;53.124;23.190;2023-05-06T07:35:42;3.40;;;2.03;;
32214;SDS011;18708;53.124;23.190;2023-05-06T07:38:08;3.15;;;2.67;;
32214;SDS011;18708;53.124;23.190;2023-05-06T07:40:34;3.20;;;2.25;;
32214;SDS011;18708;53.124;23.190;2023-05-06T07:43:00;4.53;;;2.38;;
32214;SDS011;18708;53.124;23.190;2023-05-06T07:45:26;2.97;;;2.03;;
32214;SDS011;18708;53.124;23.190;2023-05-06T07:47:54;2.97;;;1.85;;
32214;SDS011;18708;53.124;23.190;2023-05-06T07:50:20;3.83;;;2.10;;
32214;SDS011;18708;53.124;23.190;2023-05-06T07:52:46;3.00;;;1.90;;
32214;SDS011;18708;53.124;23.190;2023-05-06T07:55:11;1.88;;;1.60;;
32214;SDS011;18708;53.124;23.190;2023-05-06T07:57:37;3.00;;;1.67;;
32214;SDS011;18708;53.124;23.190;2023-05-06T08:00:03;3.53;;;1.95;;
32214;SDS011;18708;53.124;23.190;2023-05-06T08:02:30;2.92;;;1.83;;
32214;SDS011;18708;53.124;23.190;2023-05-06T08:04:55;2.63;;;1.75;;
32214;SDS011;18708;53.124;23.190;2023-05-06T08:07:21;2.70;;;1.60;;
32214;SDS011;18708;53.124;23.190;2023-05-06T08:09:49;2.25;;;1.85;;
32214;SDS011;18708;53.124;23.190;2023-05-06T08:12:15;1.95;;;1.75;;
32214;SDS011;18708;53.124;23.190;2023-05-06T08:14:41;1.75;;;1.50;;
32214;SDS011;18708;53.124;23.190;2023-05-06T08:17:07;2.35;;;1.67;;
32214;SDS011;18708;53.124;23.190;2023-05-06T08:19:32;3.28;;;1.60;;
32214;SDS011;18708;53.124;23.190;2023-05-06T08:21:58;1.60;;;1.50;;
32214;SDS011;18708;53.124;23.190;2023-05-06T08:24:24;2.42;;;1.55;;
32214;SDS011;18708;53.124;23.190;2023-05-06T08:26:49;2.85;;;1.88;;
32214;SDS011;18708;53.124;23.190;2023-05-06T08:29:15;2.42;;;1.75;;
32214;SDS011;18708;53.124;23.190;2023-05-06T08:31:41;1.75;;;1.52;;
32214;SDS011;18708;53.124;23.190;2023-05-06T08:34:09;2.45;;;1.40;;
32214;SDS011;18708;53.124;23.190;2023-05-06T08:36:35;2.30;;;1.83;;
32214;SDS011;18708;53.124;23.190;2023-05-06T08:39:01;2.15;;;1.58;;
32214;SDS011;18708;53.124;23.190;2023-05-06T08:41:27;1.85;;;1.40;;
32214;SDS011;18708;53.124;23.190;2023-05-06T08:43:54;2.58;;;1.52;;
32214;SDS011;18708;53.124;23.190;2023-05-06T08:46:25;5.40;;;1.83;;
32214;SDS011;18708;53.124;23.190;2023-05-06T08:48:54;1.92;;;1.58;;
32214;SDS011;18708;53.124;23.190;2023-05-06T08:51:21;2.38;;;1.52;;
32214;SDS011;18708;53.124;23.190;2023-05-06T08:53:51;3.60;;;1.40;;
32214;SDS011;18708;53.124;23.190;2023-05-06T08:56:19;2.55;;;1.60;;
32214;SDS011;18708;53.124;23.190;2023-05-06T08:58:48;1.95;;;1.73;;
32214;SDS011;18708;53.124;23.190;2023-05-06T09:01:16;1.80;;;1.50;;
32214;SDS011;18708;53.124;23.190;2023-05-06T09:03:42;1.38;;;1.27;;
32214;SDS011;18708;53.124;23.190;2023-05-06T09:06:08;2.63;;;1.42;;
32214;SDS011;18708;53.124;23.190;2023-05-06T09:08:34;2.25;;;1.83;;
32214;SDS011;18708;53.124;23.190;2023-05-06T09:11:00;2.90;;;1.35;;
32214;SDS011;18708;53.124;23.190;2023-05-06T09:13:26;7.57;;;5.28;;
32214;SDS011;18708;53.124;23.190;2023-05-06T09:15:52;2.42;;;1.40;;
32214;SDS011;18708;53.124;23.190;2023-05-06T09:18:18;2.20;;;1.80;;
32214;SDS011;18708;53.124;23.190;2023-05-06T09:20:45;2.50;;;1.50;;
32214;SDS011;18708;53.124;23.190;2023-05-06T09:23:13;1.55;;;1.25;;
32214;SDS011;18708;53.124;23.190;2023-05-06T09:25:44;1.65;;;1.35;;
32214;SDS011;18708;53.124;23.190;2023-05-06T09:28:11;1.25;;;1.10;;
32214;SDS011;18708;53.124;23.190;2023-05-06T09:30:41;3.22;;;2.78;;
32214;SDS011;18708;53.124;23.190;2023-05-06T09:33:09;3.17;;;2.45;;
32214;SDS011;18708;53.124;23.190;2023-05-06T09:35:36;3.08;;;1.23;;
32214;SDS011;18708;53.124;23.190;2023-05-06T09:38:03;1.70;;;1.23;;
32214;SDS011;18708;53.124;23.190;2023-05-06T09:40:29;2.38;;;1.42;;
32214;SDS011;18708;53.124;23.190;2023-05-06T09:42:55;1.60;;;1.50;;
32214;SDS011;18708;53.124;23.190;2023-05-06T09:45:22;1.27;;;1.17;;
32214;SDS011;18708;53.124;23.190;2023-05-06T09:47:48;3.00;;;1.40;;
32214;SDS011;18708;53.124;23.190;2023-05-06T09:50:14;3.70;;;1.55;;
32214;SDS011;18708;53.124;23.190;2023-05-06T09:52:43;1.80;;;1.20;;
32214;SDS011;18708;53.124;23.190;2023-05-06T09:55:09;1.30;;;1.20;;
32214;SDS011;18708;53.124;23.190;2023-05-06T09:57:35;1.65;;;1.20;;
32214;SDS011;18708;53.124;23.190;2023-05-06T10:00:02;1.65;;;1.38;;
32214;SDS011;18708;53.124;23.190;2023-05-06T10:02:30;2.15;;;1.42;;
32214;SDS011;18708;53.124;23.190;2023-05-06T10:04:56;4.18;;;1.40;;
32214;SDS011;18708;53.124;23.190;2023-05-06T10:07:23;2.03;;;1.45;;
32214;SDS011;18708;53.124;23.190;2023-05-06T10:09:53;1.38;;;1.13;;
32214;SDS011;18708;53.124;23.190;2023-05-06T10:12:18;1.30;;;1.20;;
32214;SDS011;18708;53.124;23.190;2023-05-06T10:14:44;1.38;;;1.27;;
32214;SDS011;18708;53.124;23.190;2023-05-06T10:17:11;2.72;;;1.40;;
32214;SDS011;18708;53.124;23.190;2023-05-06T10:19:41;2.58;;;1.40;;
32214;SDS011;18708;53.124;23.190;2023-05-06T10:22:10;2.72;;;1.40;;
32214;SDS011;18708;53.124;23.190;2023-05-06T10:24:45;2.20;;;1.20;;
32214;SDS011;18708;53.124;23.190;2023-05-06T10:27:17;2.05;;;1.40;;
32214;SDS011;18708;53.124;23.190;2023-05-06T10:29:44;3.15;;;1.38;;
32214;SDS011;18708;53.124;23.190;2023-05-06T10:32:12;2.75;;;1.40;;
32214;SDS011;18708;53.124;23.190;2023-05-06T10:34:40;3.40;;;2.30;;
32214;SDS011;18708;53.124;23.190;2023-05-06T10:37:14;23.85;;;8.13;;
32214;SDS011;18708;53.124;23.190;2023-05-06T10:39:40;5.50;;;3.33;;
32214;SDS011;18708;53.124;23.190;2023-05-06T10:42:09;2.15;;;1.40;;
32214;SDS011;18708;53.124;23.190;2023-05-06T10:47:24;1.65;;;1.40;;
32214;SDS011;18708;53.124;23.190;2023-05-06T10:52:44;2.30;;;1.55;;
32214;SDS011;18708;53.124;23.190;2023-05-06T10:55:27;1.52;;;1.20;;
32214;SDS011;18708;53.124;23.190;2023-05-06T10:57:54;1.48;;;1.25;;
32214;SDS011;18708;53.124;23.190;2023-05-06T11:00:21;2.58;;;1.35;;
32214;SDS011;18708;53.124;23.190;2023-05-06T11:02:53;2.60;;;1.40;;
32214;SDS011;18708;53.124;23.190;2023-05-06T11:05:25;3.95;;;1.55;;
32214;SDS011;18708;53.124;23.190;2023-05-06T11:07:51;2.35;;;1.20;;
32214;SDS011;18708;53.124;23.190;2023-05-06T11:13:17;2.40;;;1.25;;
32214;SDS011;18708;53.124;23.190;2023-05-06T11:15:51;1.42;;;1.00;;
32214;SDS011;18708;53.124;23.190;2023-05-06T11:26:17;2.08;;;1.55;;
32214;SDS011;18708;53.124;23.190;2023-05-06T11:28:47;1.95;;;1.58;;
32214;SDS011;18708;53.124;23.190;2023-05-06T11:31:14;3.63;;;1.40;;
32214;SDS011;18708;53.124;23.190;2023-05-06T11:33:49;18.20;;;6.45;;
32214;SDS011;18708;53.124;23.190;2023-05-06T11:36:17;6.78;;;3.35;;
32214;SDS011;18708;53.124;23.190;2023-05-06T11:41:16;1.35;;;1.25;;
32214;SDS011;18708;53.124;23.190;2023-05-06T11:43:49;1.95;;;1.30;;
32214;SDS011;18708;53.124;23.190;2023-05-06T11:46:20;2.03;;;1.38;;
32214;SDS011;18708;53.124;23.190;2023-05-06T11:48:47;1.30;;;1.20;;
32214;SDS011;18708;53.124;23.190;2023-05-06T11:51:14;2.30;;;1.60;;
32214;SDS011;18708;53.124;23.190;2023-05-06T11:53:40;1.42;;;1.33;;
32214;SDS011;18708;53.124;23.190;2023-05-06T11:56:06;1.50;;;1.40;;
32214;SDS011;18708;53.124;23.190;2023-05-06T11:58:31;2.10;;;1.55;;
32214;SDS011;18708;53.124;23.190;2023-05-06T12:00:58;2.22;;;1.35;;
32214;SDS011;18708;53.124;23.190;2023-05-06T12:03:25;2.28;;;1.48;;
32214;SDS011;18708;53.124;23.190;2023-05-06T12:05:53;1.63;;;1.50;;
32214;SDS011;18708;53.124;23.190;2023-05-06T12:08:29;2.50;;;1.80;;
32214;SDS011;18708;53.124;23.190;2023-05-06T12:10:57;4.38;;;1.65;;
32214;SDS011;18708;53.124;23.190;2023-05-06T12:13:27;2.28;;;1.90;;
32214;SDS011;18708;53.124;23.190;2023-05-06T12:15:53;4.68;;;4.05;;
32214;SDS011;18708;53.124;23.190;2023-05-06T12:18:21;6.10;;;2.55;;
32214;SDS011;18708;53.124;23.190;2023-05-06T12:20:47;1.48;;;1.20;;
32214;SDS011;18708;53.124;23.190;2023-05-06T12:23:14;3.15;;;2.55;;
32214;SDS011;18708;53.124;23.190;2023-05-06T12:25:40;8.68;;;2.70;;
32214;SDS011;18708;53.124;23.190;2023-05-06T12:28:14;1.88;;;1.67;;
32214;SDS011;18708;53.124;23.190;2023-05-06T12:30:41;1.85;;;1.55;;
32214;SDS011;18708;53.124;23.190;2023-05-06T12:33:07;3.40;;;2.05;;
32214;SDS011;18708;53.124;23.190;2023-05-06T12:35:33;3.92;;;1.83;;
32214;SDS011;18708;53.124;23.190;2023-05-06T12:40:35;4.78;;;1.60;;
32214;SDS011;18708;53.124;23.190;2023-05-06T12:43:01;2.90;;;1.23;;
32214;SDS011;18708;53.124;23.190;2023-05-06T12:45:27;3.50;;;1.80;;
32214;SDS011;18708;53.124;23.190;2023-05-06T12:47:53;4.43;;;1.80;;
32214;SDS011;18708;53.124;23.190;2023-05-06T12:52:57;2.33;;;1.90;;
32214;SDS011;18708;53.124;23.190;2023-05-06T12:55:23;2.28;;;1.70;;
32214;SDS011;18708;53.124;23.190;2023-05-06T12:57:50;3.35;;;1.33;;
32214;SDS011;18708;53.124;23.190;2023-05-06T13:00:16;3.05;;;1.60;;
32214;SDS011;18708;53.124;23.190;2023-05-06T13:02:43;2.85;;;1.52;;
32214;SDS011;18708;53.124;23.190;2023-05-06T13:05:09;3.33;;;1.60;;
32214;SDS011;18708;53.124;23.190;2023-05-06T13:07:35;4.10;;;1.92;;
32214;SDS011;18708;53.124;23.190;2023-05-06T13:10:01;1.80;;;1.50;;
32214;SDS011;18708;53.124;23.190;2023-05-06T13:12:27;2.95;;;1.90;;
32214;SDS011;18708;53.124;23.190;2023-05-06T13:14:53;1.90;;;1.65;;
32214;SDS011;18708;53.124;23.190;2023-05-06T13:17:19;2.58;;;1.85;;
32214;SDS011;18708;53.124;23.190;2023-05-06T13:19:45;6.05;;;1.88;;
32214;SDS011;18708;53.124;23.190;2023-05-06T13:22:11;1.63;;;1.50;;
32214;SDS011;18708;53.124;23.190;2023-05-06T13:24:36;2.42;;;1.42;;
32214;SDS011;18708;53.124;23.190;2023-05-06T13:27:03;3.63;;;2.13;;
32214;SDS011;18708;53.124;23.190;2023-05-06T13:29:28;2.83;;;1.75;;
32214;SDS011;18708;53.124;23.190;2023-05-06T13:31:54;2.72;;;1.60;;
32214;SDS011;18708;53.124;23.190;2023-05-06T13:34:20;2.78;;;1.90;;
32214;SDS011;18708;53.124;23.190;2023-05-06T13:36:46;2.50;;;1.50;;
32214;SDS011;18708;53.124;23.190;2023-05-06T13:39:13;3.17;;;2.05;;
32214;SDS011;18708;53.124;23.190;2023-05-06T13:41:40;4.53;;;2.78;;
32214;SDS011;18708;53.124;23.190;2023-05-06T13:44:06;2.88;;;1.98;;
32214;SDS011;18708;53.124;23.190;2023-05-06T13:46:32;2.30;;;1.90;;
32214;SDS011;18708;53.124;23.190;2023-05-06T13:48:58;1.95;;;1.70;;
32214;SDS011;18708;53.124;23.190;2023-05-06T13:51:23;3.05;;;2.00;;
32214;SDS011;18708;53.124;23.190;2023-05-06T13:53:53;4.85;;;1.95;;
32214;SDS011;18708;53.124;23.190;2023-05-06T13:56:19;2.42;;;1.65;;
32214;SDS011;18708;53.124;23.190;2023-05-06T13:58:45;3.88;;;2.08;;
32214;SDS011;18708;53.124;23.190;2023-05-06T14:01:11;2.22;;;1.77;;
32214;SDS011;18708;53.124;23.190;2023-05-06T14:03:39;3.72;;;1.92;;
32214;SDS011;18708;53.124;23.190;2023-05-06T14:06:04;3.22;;;2.10;;
32214;SDS011;18708;53.124;23.190;2023-05-06T14:08:32;5.45;;;2.15;;
32214;SDS011;18708;53.124;23.190;2023-05-06T14:10:58;3.72;;;1.90;;
32214;SDS011;18708;53.124;23.190;2023-05-06T14:13:23;3.53;;;2.00;;
32214;SDS011;18708;53.124;23.190;2023-05-06T14:15:51;3.92;;;2.33;;
32214;SDS011;18708;53.124;23.190;2023-05-06T14:18:17;2.45;;;1.90;;
32214;SDS011;18708;53.124;23.190;2023-05-06T14:20:42;4.72;;;2.70;;
32214;SDS011;18708;53.124;23.190;2023-05-06T14:23:08;5.35;;;2.55;;
32214;SDS011;18708;53.124;23.190;2023-05-06T14:25:34;4.85;;;2.38;;
32214;SDS011;18708;53.124;23.190;2023-05-06T14:27:59;3.35;;;1.90;;
32214;SDS011;18708;53.124;23.190;2023-05-06T14:30:25;4.22;;;2.70;;
32214;SDS011;18708;53.124;23.190;2023-05-06T14:32:51;4.07;;;2.58;;
32214;SDS011;18708;53.124;23.190;2023-05-06T14:35:16;5.25;;;3.15;;
32214;SDS011;18708;53.124;23.190;2023-05-06T14:37:42;8.73;;;2.97;;
32214;SDS011;18708;53.124;23.190;2023-05-06T14:40:08;5.05;;;2.30;;
32214;SDS011;18708;53.124;23.190;2023-05-06T14:42:34;6.00;;;2.72;;
32214;SDS011;18708;53.124;23.190;2023-05-06T14:45:00;5.70;;;3.17;;
32214;SDS011;18708;53.124;23.190;2023-05-06T14:47:26;28.67;;;11.55;;
32214;SDS011;18708;53.124;23.190;2023-05-06T14:49:52;6.10;;;4.00;;
32214;SDS011;18708;53.124;23.190;2023-05-06T14:52:17;7.68;;;3.33;;
32214;SDS011;18708;53.124;23.190;2023-05-06T14:54:43;5.45;;;1.92;;
32214;SDS011;18708;53.124;23.190;2023-05-06T14:57:09;4.20;;;2.75;;
32214;SDS011;18708;53.124;23.190;2023-05-06T14:59:35;4.07;;;2.35;;
32214;SDS011;18708;53.124;23.190;2023-05-06T15:02:02;4.45;;;3.05;;